createdAt,value
2023-03-02T00:01:34.916Z,94175.53
2023-03-02T00:04:03.932Z,94171.09
2023-03-02T00:06:32.391Z,94176.91
2023-03-02T00:09:00.746Z,94176.66
2023-03-02T00:11:30.457Z,94176.38
2023-03-02T00:13:57.383Z,94167.16
2023-03-02T00:16:24.304Z,94179.56
2023-03-02T00:18:51.297Z,94169.56
2023-03-02T00:21:17.932Z,94176.69
2023-03-02T00:23:44.952Z,94161.91
2023-03-02T00:26:11.642Z,94159.34
2023-03-02T00:28:39.013Z,94162.22
2023-03-02T00:31:06.304Z,94166.19
2023-03-02T00:33:33.612Z,94165.91
2023-03-02T00:36:00.975Z,94163.28
2023-03-02T00:38:28.708Z,94156.69
2023-03-02T00:40:56.338Z,94169.06
2023-03-02T00:43:27.395Z,94169.84
2023-03-02T00:45:55.450Z,94158.28
2023-03-02T00:48:22.834Z,94169.63
2023-03-02T00:50:49.602Z,94165.66
2023-03-02T00:53:18.000Z,94165.41
2023-03-02T00:55:54.184Z,94149.06
2023-03-02T00:58:22.034Z,94165.16
2023-03-02T01:00:48.945Z,94144.06
2023-03-02T01:03:16.290Z,94148.28
2023-03-02T01:05:43.204Z,94148.81
2023-03-02T01:08:10.042Z,94140.72
2023-03-02T01:10:37.652Z,94134.91
2023-03-02T01:13:06.026Z,94131.75
2023-03-02T01:15:33.580Z,94134.66
2023-03-02T01:18:01.120Z,94134.91
2023-03-02T01:20:28.302Z,94142.84
2023-03-02T01:22:55.771Z,94143.88
2023-03-02T01:25:22.472Z,94147.06
2023-03-02T01:27:49.421Z,94135.72
2023-03-02T01:30:16.354Z,94133.09
2023-03-02T01:32:43.173Z,94132.34
2023-03-02T01:35:10.237Z,94126.28
2023-03-02T01:37:36.890Z,94133.69
2023-03-02T01:40:06.593Z,94122.59
2023-03-02T01:42:47.197Z,94119.44
2023-03-02T01:45:53.555Z,94116.25
2023-03-02T01:49:07.503Z,94113.63
2023-03-02T01:51:54.952Z,94109.41
2023-03-02T01:54:23.389Z,94107.31
2023-03-02T01:56:58.868Z,94104.41
2023-03-02T01:59:28.664Z,94116.00
2023-03-02T02:01:58.592Z,94102.28
2023-03-02T02:04:28.485Z,94105.47
2023-03-02T02:07:00.851Z,94092.25
2023-03-02T02:09:30.049Z,94100.97
2023-03-02T02:11:56.894Z,94097.59
2023-03-02T02:14:24.539Z,94094.16
2023-03-02T02:16:52.980Z,94094.97
2023-03-02T02:19:57.490Z,94090.94
2023-03-02T02:22:36.902Z,94088.38
2023-03-02T02:25:16.706Z,94080.47
2023-03-02T02:27:43.375Z,94093.66
2023-03-02T02:30:13.364Z,94083.13
2023-03-02T02:32:43.467Z,94085.47
2023-03-02T02:35:21.462Z,94075.19
2023-03-02T02:37:52.627Z,94083.63
2023-03-02T02:40:38.450Z,94079.13
2023-03-02T02:43:07.352Z,94068.31
2023-03-02T02:45:36.017Z,94070.38
2023-03-02T02:48:02.928Z,94065.63
2023-03-02T02:50:32.845Z,94070.91
2023-03-02T02:53:12.448Z,94067.19
2023-03-02T02:55:41.386Z,94051.44
2023-03-02T02:58:25.475Z,94055.06
2023-03-02T03:00:54.800Z,94056.63
2023-03-02T03:03:30.755Z,94061.66
2023-03-02T03:06:04.008Z,94068.78
2023-03-02T03:08:45.989Z,94067.44
2023-03-02T03:11:23.560Z,94067.19
2023-03-02T03:13:57.289Z,94066.38
2023-03-02T03:16:26.244Z,94061.38
2023-03-02T03:18:54.766Z,94065.31
2023-03-02T03:21:21.668Z,94055.84
2023-03-02T03:23:49.910Z,94061.63
2023-03-02T03:26:17.266Z,94061.63
2023-03-02T03:28:46.577Z,94052.41
2023-03-02T03:31:13.373Z,94068.75
2023-03-02T03:33:40.065Z,94045.06
2023-03-02T03:36:07.376Z,94053.47
2023-03-02T03:38:34.137Z,94056.63
2023-03-02T03:41:01.801Z,94060.84
2023-03-02T03:43:28.776Z,94057.69
2023-03-02T03:45:55.895Z,94055.31
2023-03-02T03:48:22.646Z,94049.53
2023-03-02T03:50:49.624Z,94053.22
2023-03-02T03:53:16.701Z,94054.00
2023-03-02T03:55:43.449Z,94049.28
2023-03-02T03:58:10.094Z,94054.03
2023-03-02T04:00:37.339Z,94049.53
2023-03-02T04:03:08.693Z,94047.22
2023-03-02T04:05:35.592Z,94054.06
2023-03-02T04:08:03.469Z,94044.31
2023-03-02T04:10:31.364Z,94050.94
2023-03-02T04:12:58.730Z,94045.41
2023-03-02T04:15:25.697Z,94053.03
2023-03-02T04:17:52.785Z,94055.16
2023-03-02T04:20:22.323Z,94057.25
2023-03-02T04:22:54.156Z,94049.38
2023-03-02T04:25:23.635Z,94062.00
2023-03-02T04:27:54.486Z,94060.97
2023-03-02T04:30:25.767Z,94061.75
2023-03-02T04:32:53.752Z,94057.81
2023-03-02T04:35:21.820Z,94056.75
2023-03-02T04:37:48.708Z,94062.28
2023-03-02T04:40:16.930Z,94069.16
2023-03-02T04:42:44.767Z,94066.81
2023-03-02T04:45:12.189Z,94065.78
2023-03-02T04:47:39.162Z,94077.38
2023-03-02T04:50:06.426Z,94066.56
2023-03-02T04:52:33.202Z,94069.47
2023-03-02T04:54:59.872Z,94071.31
2023-03-02T04:57:26.513Z,94070.53
2023-03-02T04:59:53.181Z,94071.59
2023-03-02T05:02:19.972Z,94064.75
2023-03-02T05:04:46.636Z,94060.78
2023-03-02T05:07:13.270Z,94064.72
2023-03-02T05:09:39.935Z,94059.44
2023-03-02T05:12:06.774Z,94052.59
2023-03-02T05:14:33.796Z,94051.03
2023-03-02T05:17:00.436Z,94051.28
2023-03-02T05:19:27.279Z,94050.75
2023-03-02T05:21:53.915Z,94051.28
2023-03-02T05:24:20.582Z,94042.34
2023-03-02T05:26:47.319Z,94044.97
2023-03-02T05:29:13.972Z,94052.63
2023-03-02T05:31:43.622Z,94053.13
2023-03-02T05:34:13.451Z,94050.25
2023-03-02T05:36:40.438Z,94048.13
2023-03-02T05:39:07.311Z,94056.84
2023-03-02T05:41:34.179Z,94047.09
2023-03-02T05:44:01.323Z,94052.34
2023-03-02T05:46:28.391Z,94060.53
2023-03-02T05:48:55.051Z,94053.97
2023-03-02T05:51:21.788Z,94057.88
2023-03-02T05:53:48.522Z,94060.53
2023-03-02T05:56:15.324Z,94061.31
2023-03-02T05:58:41.992Z,94057.09
2023-03-02T06:01:14.791Z,94060.53
2023-03-02T06:03:42.565Z,94051.56
2023-03-02T06:06:13.543Z,94065.25
2023-03-02T06:08:41.840Z,94058.94
2023-03-02T06:11:09.390Z,94057.41
2023-03-02T06:13:37.144Z,94057.41
2023-03-02T06:16:04.235Z,94068.16
2023-03-02T06:18:31.036Z,94060.53
2023-03-02T06:20:57.875Z,94065.78
2023-03-02T06:23:24.524Z,94081.59
2023-03-02T06:25:51.228Z,94078.69
2023-03-02T06:28:19.983Z,94074.22
2023-03-02T06:30:52.275Z,94085.28
2023-03-02T06:33:21.368Z,94093.66
2023-03-02T06:35:49.382Z,94094.47
2023-03-02T06:38:16.533Z,94095.78
2023-03-02T06:40:43.339Z,94098.16
2023-03-02T06:43:10.160Z,94081.81
2023-03-02T06:45:37.877Z,94101.03
2023-03-02T06:48:05.352Z,94097.81
2023-03-02T06:50:32.841Z,94107.81
2023-03-02T06:52:59.905Z,94109.91
2023-03-02T06:55:26.629Z,94107.78
2023-03-02T06:57:53.605Z,94108.81
2023-03-02T07:00:28.129Z,94104.56
2023-03-02T07:02:56.089Z,94106.16
2023-03-02T07:05:24.394Z,94097.94
2023-03-02T07:07:51.401Z,94092.56
2023-03-02T07:10:18.243Z,94099.44
2023-03-02T07:12:45.027Z,94104.84
2023-03-02T07:15:14.291Z,94106.03
2023-03-02T07:17:43.752Z,94101.69
2023-03-02T07:20:12.760Z,94114.47
2023-03-02T07:22:40.406Z,94115.41
2023-03-02T07:25:08.233Z,94105.97
2023-03-02T07:27:35.108Z,94114.22
2023-03-02T07:30:01.863Z,94113.25
2023-03-02T07:32:28.599Z,94120.81
2023-03-02T07:34:55.376Z,94109.97
2023-03-02T07:37:22.095Z,94126.56
2023-03-02T07:39:49.632Z,94119.34
2023-03-02T07:42:17.266Z,94126.88
2023-03-02T07:44:47.264Z,94120.22
2023-03-02T07:47:14.024Z,94120.72
2023-03-02T07:49:40.747Z,94125.13
2023-03-02T07:52:07.623Z,94127.50
2023-03-02T07:54:34.306Z,94123.25
2023-03-02T07:57:01.025Z,94122.25
2023-03-02T07:59:28.447Z,94133.31
2023-03-02T08:01:55.998Z,94130.16
2023-03-02T08:04:23.007Z,94131.22
2023-03-02T08:06:49.733Z,94130.94
2023-03-02T08:09:17.056Z,94125.44
2023-03-02T08:11:44.920Z,94127.88
2023-03-02T08:14:11.705Z,94135.19
2023-03-02T08:16:39.448Z,94129.56
2023-03-02T08:19:07.066Z,94134.59
2023-03-02T08:21:34.089Z,94149.16
2023-03-02T08:24:00.995Z,94141.69
2023-03-02T08:26:27.715Z,94140.31
2023-03-02T08:28:54.426Z,94141.84
2023-03-02T08:31:21.131Z,94139.69
2023-03-02T08:33:47.829Z,94141.47
2023-03-02T08:36:17.390Z,94136.91
2023-03-02T08:38:44.732Z,94127.19
2023-03-02T08:41:14.987Z,94141.94
2023-03-02T08:43:42.119Z,94114.03
2023-03-02T08:46:11.491Z,94125.97
2023-03-02T08:48:38.577Z,94118.25
2023-03-02T08:51:09.135Z,94124.06
2023-03-02T08:53:39.228Z,94118.78
2023-03-02T08:56:14.679Z,94125.13
2023-03-02T08:58:41.312Z,94123.78
2023-03-02T09:01:24.100Z,94117.22
2023-03-02T09:03:51.296Z,94118.06
2023-03-02T09:06:18.705Z,94120.59
2023-03-02T09:08:45.737Z,94113.28
2023-03-02T09:11:12.702Z,94115.47
2023-03-02T09:13:39.918Z,94115.56
2023-03-02T09:16:08.600Z,94123.03
2023-03-02T09:18:36.295Z,94133.00
2023-03-02T09:21:03.965Z,94138.03
2023-03-02T09:23:32.793Z,94129.28
2023-03-02T09:25:59.575Z,94136.28
2023-03-02T09:28:26.358Z,94132.53
2023-03-02T09:30:55.341Z,94140.84
2023-03-02T09:33:21.970Z,94130.84
2023-03-02T09:35:49.417Z,94141.13
2023-03-02T09:38:18.259Z,94136.47
2023-03-02T09:41:13.760Z,94139.06
2023-03-02T09:43:40.412Z,94134.78
2023-03-02T09:46:44.341Z,94138.78
2023-03-02T09:49:36.319Z,94137.97
2023-03-02T09:52:02.933Z,94139.28
2023-03-02T09:54:31.008Z,94135.94
2023-03-02T09:56:59.326Z,94146.59
2023-03-02T09:59:28.960Z,94144.81
2023-03-02T10:02:10.879Z,94138.16
2023-03-02T10:05:07.306Z,94144.25
2023-03-02T10:07:38.914Z,94144.19
2023-03-02T10:10:25.245Z,94146.25
2023-03-02T10:12:51.852Z,94143.59
2023-03-02T10:15:31.580Z,94142.00
2023-03-02T10:18:06.863Z,94135.16
2023-03-02T10:20:55.063Z,94137.38
2023-03-02T10:24:03.480Z,94135.78
2023-03-02T10:26:40.747Z,94139.22
2023-03-02T10:29:10.403Z,94146.56
2023-03-02T10:31:40.584Z,94142.50
2023-03-02T10:34:11.469Z,94138.38
2023-03-02T10:36:41.349Z,94144.69
2023-03-02T10:39:16.226Z,94141.84
2023-03-02T10:42:18.448Z,94151.31
2023-03-02T10:44:50.417Z,94148.66
2023-03-02T10:47:23.167Z,94143.19
2023-03-02T10:49:50.933Z,94148.66
2023-03-02T10:52:23.158Z,94136.19
2023-03-02T10:54:52.715Z,94139.66
2023-03-02T10:57:30.906Z,94140.88
2023-03-02T11:00:01.439Z,94142.59
2023-03-02T11:02:29.509Z,94140.97
2023-03-02T11:05:19.522Z,94144.75
2023-03-02T11:07:54.081Z,94129.53
2023-03-02T11:10:22.899Z,94133.09
2023-03-02T11:12:51.903Z,94139.41
2023-03-02T11:15:26.496Z,94136.13
2023-03-02T11:18:01.897Z,94131.09
2023-03-02T11:20:42.602Z,94139.25
2023-03-02T11:23:26.568Z,94128.56
2023-03-02T11:25:57.366Z,94136.72
2023-03-02T11:28:37.028Z,94130.25
2023-03-02T11:31:10.327Z,94130.25
2023-03-02T11:33:49.941Z,94131.22
2023-03-02T11:36:22.161Z,94122.25
2023-03-02T11:38:55.186Z,94126.53
2023-03-02T11:41:29.929Z,94133.56
2023-03-02T11:44:01.409Z,94126.63
2023-03-02T11:46:33.715Z,94124.94
2023-03-02T11:49:03.610Z,94126.78
2023-03-02T11:51:37.868Z,94127.16
2023-03-02T11:54:12.200Z,94123.91
2023-03-02T11:56:39.996Z,94132.25
2023-03-02T11:59:15.767Z,94129.03
2023-03-02T12:01:48.012Z,94113.25
2023-03-02T12:04:29.130Z,94120.94
2023-03-02T12:06:56.016Z,94105.53
2023-03-02T12:09:22.724Z,94122.22
2023-03-02T12:12:00.101Z,94116.09
2023-03-02T12:14:38.255Z,94119.66
2023-03-02T12:17:06.349Z,94116.81
2023-03-02T12:19:42.612Z,94109.63
2023-03-02T12:22:12.455Z,94117.16
2023-03-02T12:24:42.232Z,94116.59
2023-03-02T12:27:21.046Z,94109.81
2023-03-02T12:29:52.125Z,94106.81
2023-03-02T12:32:18.837Z,94110.66
2023-03-02T12:34:53.889Z,94110.09
2023-03-02T12:37:47.201Z,94104.19
2023-03-02T12:40:43.330Z,94107.78
2023-03-02T12:43:37.892Z,94099.16
2023-03-02T12:46:28.500Z,94101.63
2023-03-02T12:48:58.289Z,94107.50
2023-03-02T12:51:28.021Z,94097.00
2023-03-02T12:54:12.490Z,94095.81
2023-03-02T12:56:39.480Z,94095.00
2023-03-02T12:59:06.731Z,94096.91
2023-03-02T13:01:34.420Z,94097.22
2023-03-02T13:04:01.184Z,94092.53
2023-03-02T13:06:31.838Z,94098.16
2023-03-02T13:09:00.482Z,94091.31
2023-03-02T13:11:33.644Z,94091.31
2023-03-02T13:14:03.642Z,94090.97
2023-03-02T13:16:34.194Z,94082.94
2023-03-02T13:19:09.887Z,94092.13
2023-03-02T13:21:38.607Z,94084.78
2023-03-02T13:24:31.167Z,94089.19
2023-03-02T13:27:05.758Z,94091.44
2023-03-02T13:29:32.555Z,94088.63
2023-03-02T13:32:21.586Z,94096.97
2023-03-02T13:34:59.579Z,94090.53
2023-03-02T13:37:43.817Z,94099.66
2023-03-02T13:40:23.673Z,94100.72
2023-03-02T13:42:51.472Z,94091.88
2023-03-02T13:45:25.074Z,94099.19
2023-03-02T13:47:52.603Z,94093.31
2023-03-02T13:50:25.691Z,94085.97
2023-03-02T13:52:57.667Z,94093.34
2023-03-02T13:55:25.235Z,94092.44
2023-03-02T13:57:53.397Z,94100.16
2023-03-02T14:00:28.030Z,94098.59
2023-03-02T14:02:54.716Z,94098.28
2023-03-02T14:05:24.584Z,94102.34
2023-03-02T14:07:51.251Z,94101.25
2023-03-02T14:10:19.565Z,94098.97
2023-03-02T14:12:56.700Z,94098.31
2023-03-02T14:15:23.747Z,94088.72
2023-03-02T14:17:50.530Z,94093.41
2023-03-02T14:20:19.894Z,94089.63
2023-03-02T14:22:48.114Z,94090.69
2023-03-02T14:25:15.021Z,94083.97
2023-03-02T14:27:43.035Z,94090.84
2023-03-02T14:30:27.822Z,94091.56
2023-03-02T14:32:54.515Z,94089.19
2023-03-02T14:35:22.681Z,94076.00
2023-03-02T14:37:49.842Z,94086.47
2023-03-02T14:40:28.172Z,94084.03
2023-03-02T14:42:55.107Z,94088.28
2023-03-02T14:45:23.094Z,94092.75
2023-03-02T14:47:49.794Z,94083.25
2023-03-02T14:50:17.371Z,94078.75
2023-03-02T14:52:53.160Z,94087.25
2023-03-02T14:55:29.183Z,94083.25
2023-03-02T14:57:58.797Z,94075.34
2023-03-02T15:00:26.144Z,94076.59
2023-03-02T15:02:52.954Z,94094.91
2023-03-02T15:05:20.188Z,94083.06
2023-03-02T15:07:47.946Z,94090.38
2023-03-02T15:10:20.505Z,94083.34
2023-03-02T15:12:47.170Z,94090.72
2023-03-02T15:15:14.112Z,94079.34
2023-03-02T15:17:41.299Z,94085.69
2023-03-02T15:20:13.853Z,94084.16
2023-03-02T15:22:40.564Z,94088.41
2023-03-02T15:25:07.785Z,94085.38
2023-03-02T15:27:34.441Z,94081.72
2023-03-02T15:30:01.090Z,94071.47
2023-03-02T15:32:27.897Z,94078.94
2023-03-02T15:34:54.719Z,94078.97
2023-03-02T15:37:21.482Z,94080.16
2023-03-02T15:39:53.371Z,94091.72
2023-03-02T15:42:20.100Z,94080.22
2023-03-02T15:44:46.773Z,94089.16
2023-03-02T15:47:13.442Z,94090.97
2023-03-02T15:49:40.097Z,94087.53
2023-03-02T15:52:06.768Z,94090.75
2023-03-02T15:54:33.673Z,94088.44
2023-03-02T15:57:00.296Z,94082.63
2023-03-02T15:59:29.330Z,94091.19
2023-03-02T16:01:59.522Z,94097.22
2023-03-02T16:04:27.177Z,94097.88
2023-03-02T16:06:55.002Z,94081.41
2023-03-02T16:09:22.346Z,94087.25
2023-03-02T16:11:49.734Z,94090.78
2023-03-02T16:14:16.784Z,94101.19
2023-03-02T16:16:44.977Z,94094.59
2023-03-02T16:19:14.491Z,94093.63
2023-03-02T16:21:41.769Z,94101.19
2023-03-02T16:24:09.118Z,94096.78
2023-03-02T16:26:37.868Z,94093.34
2023-03-02T16:29:08.017Z,94105.16
2023-03-02T16:31:37.828Z,94104.84
2023-03-02T16:34:09.465Z,94106.28
2023-03-02T16:36:37.901Z,94104.41
2023-03-02T16:39:06.339Z,94104.84
2023-03-02T16:41:33.443Z,94109.09
2023-03-02T16:44:01.035Z,94111.63
2023-03-02T16:46:30.344Z,94123.16
2023-03-02T16:48:57.657Z,94117.88
2023-03-02T16:51:24.947Z,94118.66
2023-03-02T16:53:52.024Z,94119.31
2023-03-02T16:56:18.818Z,94125.13
2023-03-02T16:58:45.717Z,94124.16
2023-03-02T17:01:15.423Z,94127.44
2023-03-02T17:03:42.757Z,94126.19
2023-03-02T17:06:11.811Z,94132.56
2023-03-02T17:08:38.729Z,94132.88
2023-03-02T17:11:05.974Z,94154.81
2023-03-02T17:13:32.886Z,94147.13
2023-03-02T17:15:59.664Z,94146.91
2023-03-02T17:18:30.375Z,94149.41
2023-03-02T17:21:00.751Z,94151.88
2023-03-02T17:23:28.006Z,94162.53
2023-03-02T17:25:56.138Z,94165.69
2023-03-02T17:28:23.184Z,94160.97
2023-03-02T17:30:50.435Z,94167.41
2023-03-02T17:33:18.266Z,94164.09
2023-03-02T17:35:46.310Z,94176.94
2023-03-02T17:38:14.421Z,94176.28
2023-03-02T17:40:42.007Z,94176.69
2023-03-02T17:43:08.810Z,94181.88
2023-03-02T17:45:35.696Z,94185.63
2023-03-02T17:48:02.406Z,94191.56
2023-03-02T17:50:31.899Z,94191.06
2023-03-02T17:52:59.873Z,94193.56
2023-03-02T17:55:26.901Z,94198.09
2023-03-02T17:57:53.716Z,94196.53
2023-03-02T18:00:22.288Z,94195.56
2023-03-02T18:02:49.849Z,94199.31
2023-03-02T18:05:16.785Z,94206.31
2023-03-02T18:07:43.470Z,94202.00
2023-03-02T18:10:11.064Z,94208.31
2023-03-02T18:12:37.755Z,94210.97
2023-03-02T18:15:05.094Z,94212.84
2023-03-02T18:17:31.782Z,94206.72
2023-03-02T18:19:58.445Z,94212.84
2023-03-02T18:22:25.282Z,94214.41
2023-03-02T18:24:52.993Z,94207.25
2023-03-02T18:27:20.292Z,94212.72
2023-03-02T18:29:46.972Z,94217.88
2023-03-02T18:32:14.376Z,94221.00
2023-03-02T18:34:41.188Z,94216.47
2023-03-02T18:37:08.181Z,94221.97
2023-03-02T18:39:35.198Z,94216.19
2023-03-02T18:42:01.830Z,94219.25
2023-03-02T18:44:30.312Z,94220.63
2023-03-02T18:46:57.423Z,94220.94
2023-03-02T18:49:24.624Z,94220.34
2023-03-02T18:51:51.370Z,94208.47
2023-03-02T18:54:18.138Z,94223.03
2023-03-02T18:56:44.851Z,94228.56
2023-03-02T18:59:13.237Z,94226.69
2023-03-02T19:01:40.345Z,94234.78
2023-03-02T19:04:07.103Z,94240.84
2023-03-02T19:06:34.331Z,94231.66
2023-03-02T19:09:01.026Z,94228.22
2023-03-02T19:11:27.805Z,94225.28
2023-03-02T19:13:54.527Z,94233.53
2023-03-02T19:16:21.291Z,94240.44
2023-03-02T19:18:48.749Z,94233.44
2023-03-02T19:21:16.219Z,94239.75
2023-03-02T19:23:44.548Z,94245.94
2023-03-02T19:26:12.325Z,94240.25
2023-03-02T19:28:39.946Z,94234.94
2023-03-02T19:31:09.398Z,94229.63
2023-03-02T19:33:37.748Z,94241.25
2023-03-02T19:36:05.667Z,94238.50
2023-03-02T19:38:32.968Z,94234.84
2023-03-02T19:41:00.750Z,94241.44
2023-03-02T19:43:28.132Z,94233.19
2023-03-02T19:45:54.890Z,94242.03
2023-03-02T19:48:22.082Z,94235.03
2023-03-02T19:50:48.781Z,94241.06
2023-03-02T19:53:16.975Z,94247.53
2023-03-02T19:55:44.409Z,94242.50
2023-03-02T19:58:17.198Z,94240.78
2023-03-02T20:00:45.201Z,94240.59
2023-03-02T20:03:13.020Z,94238.13
2023-03-02T20:05:39.708Z,94240.06
2023-03-02T20:08:07.582Z,94246.75
2023-03-02T20:10:37.926Z,94238.03
2023-03-02T20:13:06.507Z,94247.00
2023-03-02T20:15:38.026Z,94245.56
2023-03-02T20:18:07.462Z,94253.69
2023-03-02T20:20:34.751Z,94254.00
2023-03-02T20:23:01.560Z,94255.78
2023-03-02T20:25:28.877Z,94257.72
2023-03-02T20:27:55.852Z,94252.25
2023-03-02T20:30:45.127Z,94251.25
2023-03-02T20:33:12.664Z,94258.00
2023-03-02T20:35:42.915Z,94238.00
2023-03-02T20:38:15.911Z,94260.50
2023-03-02T20:40:43.013Z,94254.19
2023-03-02T20:43:09.761Z,94259.31
2023-03-02T20:45:36.417Z,94259.69
2023-03-02T20:48:05.479Z,94263.19
2023-03-02T20:50:33.764Z,94265.72
2023-03-02T20:53:01.042Z,94262.59
2023-03-02T20:55:28.363Z,94272.00
2023-03-02T20:57:56.559Z,94272.59
2023-03-02T21:00:27.202Z,94274.50
2023-03-02T21:02:54.628Z,94279.13
2023-03-02T21:05:21.613Z,94269.97
2023-03-02T21:07:49.368Z,94279.22
2023-03-02T21:10:20.034Z,94277.34
2023-03-02T21:12:49.060Z,94272.94
2023-03-02T21:15:16.910Z,94268.75
2023-03-02T21:17:43.547Z,94277.50
2023-03-02T21:20:12.270Z,94274.84
2023-03-02T21:22:38.954Z,94277.06
2023-03-02T21:25:09.001Z,94264.16
2023-03-02T21:27:36.833Z,94278.41
2023-03-02T21:30:09.204Z,94281.34
2023-03-02T21:32:35.765Z,94282.69
2023-03-02T21:35:02.800Z,94271.63
2023-03-02T21:37:29.472Z,94261.72
2023-03-02T21:39:56.116Z,94272.28
2023-03-02T21:42:22.844Z,94268.06
2023-03-02T21:44:49.559Z,94275.47
2023-03-02T21:47:16.247Z,94270.13
2023-03-02T21:49:42.894Z,94262.44
2023-03-02T21:52:09.634Z,94264.75
2023-03-02T21:54:36.656Z,94260.00
2023-03-02T21:57:03.528Z,94269.03
2023-03-02T21:59:30.888Z,94268.03
2023-03-02T22:01:57.643Z,94279.06
2023-03-02T22:04:24.346Z,94278.53
2023-03-02T22:06:51.167Z,94270.16
2023-03-02T22:09:18.037Z,94270.41
2023-03-02T22:11:45.381Z,94272.19
2023-03-02T22:14:14.796Z,94273.75
2023-03-02T22:16:45.344Z,94272.19
2023-03-02T22:19:30.484Z,94274.91
2023-03-02T22:22:00.214Z,94270.72
2023-03-02T22:24:32.573Z,94275.69
2023-03-02T22:27:19.163Z,94271.75
2023-03-02T22:29:47.328Z,94267.00
2023-03-02T22:32:20.148Z,94277.09
2023-03-02T22:34:50.191Z,94268.91
2023-03-02T22:37:26.598Z,94270.75
2023-03-02T22:40:00.833Z,94271.06
2023-03-02T22:42:30.900Z,94270.91
2023-03-02T22:45:14.898Z,94277.06
2023-03-02T22:47:42.866Z,94275.72
2023-03-02T22:50:23.276Z,94275.72
2023-03-02T22:52:51.133Z,94275.72
2023-03-02T22:55:38.629Z,94269.88
2023-03-02T22:58:27.645Z,94275.16
2023-03-02T23:00:54.832Z,94270.97
2023-03-02T23:03:39.514Z,94285.53
2023-03-02T23:06:27.632Z,94289.50
2023-03-02T23:08:57.226Z,94282.41
2023-03-02T23:11:24.874Z,94279.81
2023-03-02T23:13:53.033Z,94267.94
2023-03-02T23:16:25.775Z,94286.94
2023-03-02T23:18:55.976Z,94283.75
2023-03-02T23:21:28.561Z,94280.09
2023-03-02T23:23:55.754Z,94286.63
2023-03-02T23:26:22.574Z,94279.19
2023-03-02T23:28:50.973Z,94274.13
2023-03-02T23:31:21.312Z,94270.97
2023-03-02T23:33:48.430Z,94276.50
2023-03-02T23:36:15.425Z,94285.75
2023-03-02T23:38:42.074Z,94270.38
2023-03-02T23:41:09.997Z,94273.50
2023-03-02T23:43:36.675Z,94270.13
2023-03-02T23:46:03.699Z,94257.97
2023-03-02T23:48:30.535Z,94270.88
2023-03-02T23:50:57.423Z,94269.72
2023-03-02T23:53:24.167Z,94270.88
2023-03-02T23:55:53.736Z,94272.94
2023-03-02T23:58:20.959Z,94268.44
